Time;durP1;ratioP1;P1;durP2;ratioP2;P2;SDS_P1;SDS_P2;PMS_P1;PMS_P2;Temp;Humidity;BMP_temperature;BMP_pressure;BME280_temperature;BME280_humidity;BME280_pressure;Samples;Min_cycle;Max_cycle;Signal;HPM_P1;HPM_P2
2024/01/11 00:00:15;;;;;;;4.70;0.80;;;;;;;6.79;100.00;100289.00;6182901;23;20017;-83
2024/01/11 00:02:45;;;;;;;3.33;0.77;;;;;;;6.68;100.00;100296.31;6183632;23;20024;-87
2024/01/11 00:05:18;;;;;;;1.45;0.63;;;;;;;6.63;100.00;100295.28;6184215;23;20035;-84
2024/01/11 00:07:47;;;;;;;5.13;0.52;;;;;;;6.56;100.00;100294.16;6184307;23;20096;-85
2024/01/11 00:10:18;;;;;;;2.72;0.63;;;;;;;6.51;100.00;100300.81;6183160;23;20020;-84
2024/01/11 00:12:52;;;;;;;4.10;0.70;;;;;;;6.42;100.00;100300.47;6185047;23;20449;-84
2024/01/11 00:15:21;;;;;;;2.42;0.75;;;;;;;6.37;100.00;100301.97;6184335;23;20096;-86
2024/01/11 00:17:52;;;;;;;2.90;0.75;;;;;;;6.23;100.00;100302.31;6214994;22;20389;-87
2024/01/11 00:20:21;;;;;;;3.28;0.77;;;;;;;6.28;100.00;100312.78;6184945;23;20157;-85
2024/01/11 00:22:52;;;;;;;3.30;0.50;;;;;;;6.22;100.00;100312.53;6184845;23;20024;-85
2024/01/11 00:25:26;;;;;;;2.83;0.32;;;;;;;6.19;100.00;100317.56;6182824;23;20028;-83
2024/01/11 00:27:55;;;;;;;2.40;0.90;;;;;;;6.14;100.00;100319.03;6182688;23;20072;-83
2024/01/11 00:30:25;;;;;;;0.32;0.30;;;;;;;6.06;100.00;100322.19;6181377;23;20164;-86
2024/01/11 00:32:55;;;;;;;1.17;0.60;;;;;;;5.97;100.00;100315.78;6182634;23;20286;-86
2024/01/11 00:35:24;;;;;;;5.82;0.68;;;;;;;5.95;100.00;100312.28;6181793;23;20075;-84
2024/01/11 00:37:53;;;;;;;2.38;0.52;;;;;;;5.94;100.00;100311.41;6183898;23;20044;-85
2024/01/11 00:40:26;;;;;;;0.30;0.22;;;;;;;5.94;100.00;100323.34;6183661;23;20485;-84
2024/01/11 00:43:08;;;;;;;1.83;0.50;;;;;;;5.93;100.00;100324.16;6180975;23;20433;-82
2024/01/11 00:45:37;;;;;;;1.98;0.32;;;;;;;5.92;100.00;100323.28;6180940;23;20302;-84
2024/01/11 00:48:07;;;;;;;1.58;0.32;;;;;;;5.87;100.00;100332.50;6183192;23;20027;-83
2024/01/11 00:50:36;;;;;;;1.35;0.35;;;;;;;5.84;100.00;100314.38;6181534;23;20027;-83
2024/01/11 00:53:09;;;;;;;0.47;0.40;;;;;;;5.76;100.00;100319.19;6182952;23;20025;-83
2024/01/11 00:55:38;;;;;;;0.73;0.47;;;;;;;5.75;100.00;100324.25;6180801;23;20023;-82
2024/01/11 00:58:09;;;;;;;1.08;0.47;;;;;;;5.75;100.00;100324.25;6185828;23;20025;-82
2024/01/11 01:00:48;;;;;;;;;;;;;;;;;;;;;
2024/01/11 01:03:18;;;;;;;5.82;0.73;;;;;;;5.65;100.00;100318.75;6179621;23;20096;-82
2024/01/11 01:05:47;;;;;;;4.65;0.80;;;;;;;5.63;100.00;100325.50;6181492;23;20025;-84
2024/01/11 01:08:20;;;;;;;1.23;0.47;;;;;;;5.59;100.00;100323.63;6182398;23;20215;-82
2024/01/11 01:10:49;;;;;;;1.38;0.50;;;;;;;5.56;100.00;100327.75;6181365;23;20024;-83
2024/01/11 01:13:19;;;;;;;3.00;0.70;;;;;;;5.51;100.00;100327.56;6179028;23;20079;-83
2024/01/11 01:15:49;;;;;;;1.05;0.50;;;;;;;5.52;100.00;100337.03;6179507;23;20021;-84
2024/01/11 01:18:19;;;;;;;5.68;0.80;;;;;;;5.48;100.00;100335.13;6180534;23;20029;-85
2024/01/11 01:20:56;;;;;;;1.02;0.43;;;;;;;5.46;100.00;100336.75;6175079;23;20025;-83
2024/01/11 01:23:25;;;;;;;1.05;0.57;;;;;;;5.52;100.00;100341.25;6178796;23;20123;-84
2024/01/11 01:25:54;;;;;;;1.33;0.60;;;;;;;5.56;100.00;100343.16;6175638;23;20044;-83
2024/01/11 01:28:37;;;;;;;3.05;0.60;;;;;;;5.54;100.00;100340.50;6177145;23;20024;-85
2024/01/11 01:31:06;;;;;;;2.38;0.75;;;;;;;5.55;100.00;100337.13;6177702;23;20021;-83
2024/01/11 01:33:35;;;;;;;2.70;0.55;;;;;;;5.57;100.00;100345.78;6177803;23;20112;-83
2024/01/11 01:36:11;;;;;;;5.90;0.57;;;;;;;5.55;100.00;100349.09;6183110;23;20024;-84
2024/01/11 01:38:40;;;;;;;1.80;0.70;;;;;;;5.57;100.00;100356.06;6177971;23;20171;-83
2024/01/11 01:41:09;;;;;;;0.75;0.50;;;;;;;5.60;100.00;100353.59;6180419;23;20044;-84
2024/01/11 01:43:41;;;;;;;3.30;0.50;;;;;;;5.59;100.00;100358.66;6178531;23;20036;-85
2024/01/11 01:46:21;;;;;;;0.87;0.60;;;;;;;5.59;100.00;100351.88;6177565;23;20052;-84
2024/01/11 01:48:50;;;;;;;4.95;0.43;;;;;;;5.66;100.00;100366.72;6179012;23;20072;-83
2024/01/11 01:51:20;;;;;;;1.15;0.47;;;;;;;5.66;100.00;100361.59;6179205;23;20021;-82
2024/01/11 01:53:54;;;;;;;0.80;0.50;;;;;;;5.69;100.00;100357.38;6180437;23;20040;-83
2024/01/11 01:56:23;;;;;;;5.47;1.38;;;;;;;5.66;100.00;100356.44;6178443;23;20017;-83
2024/01/11 01:58:56;;;;;;;4.55;0.55;;;;;;;5.72;100.00;100371.22;6178872;23;20017;-83
2024/01/11 02:01:35;;;;;;;0.95;0.40;;;;;;;5.72;100.00;100368.66;6179003;23;20039;-83
2024/01/11 02:04:05;;;;;;;5.25;0.90;;;;;;;5.70;100.00;100380.53;6178070;23;20017;-83
2024/01/11 02:06:36;;;;;;;4.80;1.67;;;;;;;5.72;100.00;100380.63;6181128;23;20460;-82
2024/01/11 02:09:08;;;;;;;2.63;0.35;;;;;;;5.73;100.00;100379.81;6180400;23;20025;-83
2024/01/11 02:11:41;;;;;;;3.55;0.63;;;;;;;5.75;100.00;100375.59;6180867;23;20031;-84
2024/01/11 02:14:13;;;;;;;1.85;0.88;;;;;;;5.76;100.00;100378.25;6184659;23;20032;-83
2024/01/11 02:16:41;;;;;;;2.35;1.08;;;;;;;5.75;100.00;100383.31;6183025;23;20092;-81
2024/01/11 02:19:17;;;;;;;5.30;0.85;;;;;;;5.76;100.00;100385.06;6181931;23;20361;-82
2024/01/11 02:21:48;;;;;;;1.20;0.50;;;;;;;5.82;100.00;100393.91;6182661;23;20021;-81
2024/01/11 02:24:18;;;;;;;1.10;0.57;;;;;;;5.82;100.00;100398.19;6183799;23;20017;-82
2024/01/11 02:27:04;;;;;;;1.13;0.47;;;;;;;5.88;100.00;100406.13;6202362;23;20028;-82
2024/01/11 02:29:33;;;;;;;3.05;0.65;;;;;;;5.89;100.00;100397.63;6212005;23;20001;-82
2024/01/11 02:32:04;;;;;;;2.92;0.93;;;;;;;5.88;100.00;100398.44;6208785;23;20045;-82
2024/01/11 02:34:38;;;;;;;0.55;0.40;;;;;;;5.86;100.00;100402.63;6203380;23;20027;-85
2024/01/11 02:37:11;;;;;;;3.38;0.50;;;;;;;5.81;100.00;100404.13;6183517;23;20013;-89
2024/01/11 02:39:41;;;;;;;;;;;;;;;5.79;100.00;100416.00;6182182;23;20021;-84
2024/01/11 02:42:16;;;;;;;4.47;0.40;;;;;;;5.76;100.00;100414.19;6180325;23;19923;-86
2024/01/11 02:44:50;;;;;;;2.83;0.82;;;;;;;5.75;100.00;100426.94;6181056;23;20021;-85
2024/01/11 02:47:23;;;;;;;1.15;0.55;;;;;;;5.73;100.00;100441.44;6177992;23;20381;-85
2024/01/11 02:52:27;;;;;;;2.85;0.65;;;;;;;5.69;100.00;100439.53;6212666;23;20074;-85
2024/01/11 02:54:59;;;;;;;1.00;0.40;;;;;;;5.76;100.00;100449.25;6212080;23;20016;-84
2024/01/11 02:57:28;;;;;;;2.10;0.43;;;;;;;5.81;100.00;100452.91;6208112;23;20074;-85
2024/01/11 03:00:05;;;;;;;0.55;0.35;;;;;;;5.85;100.00;100459.94;6211126;23;20016;-85
2024/01/11 03:02:34;;;;;;;6.40;0.52;;;;;;;5.86;100.00;100466.81;6209313;23;20027;-83
2024/01/11 03:05:04;;;;;;;1.35;0.55;;;;;;;5.83;100.00;100462.41;6210034;23;20099;-85
2024/01/11 03:07:41;;;;;;;3.13;0.20;;;;;;;5.81;100.00;100460.59;6208478;23;20020;-85
2024/01/11 03:10:14;;;;;;;3.22;0.55;;;;;;;5.78;100.00;100466.47;6209710;23;20357;-83
2024/01/11 03:12:43;;;;;;;1.25;0.45;;;;;;;5.82;100.00;100472.63;6207964;23;20460;-84
2024/01/11 03:15:17;;;;;;;3.50;0.60;;;;;;;5.83;100.00;100482.97;6210990;23;20040;-85
2024/01/11 03:17:47;;;;;;;0.43;0.30;;;;;;;5.84;100.00;100487.31;6209701;23;20021;-84
2024/01/11 03:20:16;;;;;;;0.70;0.35;;;;;;;5.90;100.00;100491.81;6214161;23;20457;-83
2024/01/11 03:22:48;;;;;;;0.57;0.30;;;;;;;5.89;100.00;100492.63;6209185;23;20056;-86
2024/01/11 03:25:29;;;;;;;1.30;0.43;;;;;;;5.92;100.00;100503.03;6211689;23;20016;-86
2024/01/11 03:27:59;;;;;;;4.20;0.40;;;;;;;5.88;100.00;100511.41;6211076;23;20253;-83
2024/01/11 03:30:29;;;;;;;2.20;0.30;;;;;;;5.82;100.00;100508.59;6213420;23;20527;-83
2024/01/11 03:33:01;;;;;;;2.03;0.20;;;;;;;5.82;100.00;100516.28;6210810;23;20016;-84
2024/01/11 03:35:30;;;;;;;0.60;0.17;;;;;;;5.75;100.00;100520.28;6210835;23;20024;-84
2024/01/11 03:37:59;;;;;;;0.20;0.10;;;;;;;5.70;100.00;100528.56;6206564;23;20079;-83
2024/01/11 03:40:31;;;;;;;7.00;0.85;;;;;;;5.66;100.00;100527.56;6211199;23;20092;-85
2024/01/11 03:43:00;;;;;;;2.00;0.30;;;;;;;5.59;100.00;100517.78;6212187;23;20027;-83
2024/01/11 03:45:32;;;;;;;2.08;0.22;;;;;;;5.61;100.00;100522.22;6211626;23;20098;-84
2024/01/11 03:48:01;;;;;;;1.30;0.45;;;;;;;5.47;100.00;100528.38;6209321;23;20021;-86
2024/01/11 03:50:31;;;;;;;0.93;0.30;;;;;;;5.43;100.00;100532.50;6209084;23;20031;-83
2024/01/11 03:53:04;;;;;;;4.20;0.52;;;;;;;5.39;100.00;100535.72;6211167;23;20021;-83
2024/01/11 03:55:46;;;;;;;0.77;0.30;;;;;;;5.39;100.00;100540.84;6209740;23;20024;-85
2024/01/11 03:58:15;;;;;;;3.00;0.52;;;;;;;5.38;100.00;100535.66;6212150;23;20080;-85
2024/01/11 04:00:50;;;;;;;2.20;0.28;;;;;;;5.40;100.00;100536.59;6211336;23;20046;-82
2024/01/11 04:03:19;;;;;;;0.68;0.40;;;;;;;5.36;100.00;100539.81;6211727;23;20021;-84
2024/01/11 04:05:49;;;;;;;1.20;0.43;;;;;;;5.36;100.00;100550.09;6210456;23;20507;-83
2024/01/11 04:08:19;;;;;;;1.85;0.40;;;;;;;5.33;100.00;100560.22;6201712;23;20597;-84
2024/01/11 04:11:04;;;;;;;0.10;0.10;;;;;;;5.28;100.00;100562.56;6210196;23;20157;-86
2024/01/11 04:31:41;;;;;;;0.82;0.20;;;;;;;5.06;100.00;100558.06;6202390;23;20020;-85
2024/01/11 04:34:10;;;;;;;3.13;0.55;;;;;;;5.04;100.00;100555.47;6210388;23;20031;-83
2024/01/11 04:36:44;;;;;;;1.00;0.45;;;;;;;5.09;100.00;100555.69;6211275;23;20412;-83
2024/01/11 04:39:20;;;;;;;0.70;0.40;;;;;;;5.15;100.00;100566.22;6211358;23;20016;-82
2024/01/11 04:41:50;;;;;;;0.30;0.25;;;;;;;5.12;100.00;100555.81;6211203;23;20101;-82
2024/01/11 04:44:18;;;;;;;1.67;0.70;;;;;;;5.09;100.00;100565.94;6214751;23;20021;-83
2024/01/11 04:46:55;;;;;;;0.80;0.50;;;;;;;5.07;100.00;100571.81;6211859;23;20056;-83
2024/01/11 04:49:24;;;;;;;2.70;0.60;;;;;;;5.09;100.00;100576.19;6209900;23;20025;-84
2024/01/11 04:51:53;;;;;;;1.60;0.57;;;;;;;5.15;100.00;100585.84;6211493;23;20020;-84
2024/01/11 04:54:22;;;;;;;1.70;0.77;;;;;;;5.05;100.00;100589.66;6210433;23;20032;-83
2024/01/11 04:57:02;;;;;;;0.45;0.32;;;;;;;5.00;100.00;100592.00;6211782;23;20044;-83
2024/01/11 04:59:31;;;;;;;0.35;0.20;;;;;;;4.94;100.00;100594.25;6211136;23;20104;-83
2024/01/11 05:02:03;;;;;;;1.27;0.60;;;;;;;4.88;100.00;100606.81;6209491;23;20021;-87
2024/01/11 05:04:37;;;;;;;1.05;0.70;;;;;;;4.87;100.00;100599.03;6210802;23;20020;-84
2024/01/11 05:07:06;;;;;;;1.80;1.00;;;;;;;4.86;100.00;100599.84;6210302;23;20028;-83
2024/01/11 05:09:36;;;;;;;1.67;0.70;;;;;;;4.87;100.00;100601.59;6210423;23;20027;-83
2024/01/11 05:12:16;;;;;;;;;;;;;;;;;;;;;
2024/01/11 05:14:45;;;;;;;3.60;0.70;;;;;;;4.89;100.00;100615.38;6207908;23;20409;-84
2024/01/11 05:17:17;;;;;;;2.13;0.68;;;;;;;4.91;100.00;100621.44;6210755;23;20040;-83
2024/01/11 05:19:45;;;;;;;1.42;0.60;;;;;;;4.91;100.00;100616.31;6210362;23;20108;-84
2024/01/11 05:22:21;;;;;;;1.40;0.75;;;;;;;4.94;100.00;100621.59;6214743;23;20027;-84
2024/01/11 05:24:50;;;;;;;1.75;0.90;;;;;;;4.92;100.00;100633.44;6209321;23;20020;-83
2024/01/11 05:27:19;;;;;;;0.70;0.65;;;;;;;4.91;100.00;100624.88;6211202;23;20023;-83
2024/01/11 05:29:50;;;;;;;0.88;0.43;;;;;;;4.97;100.00;100632.00;6210739;23;20441;-83
2024/01/11 05:32:30;;;;;;;1.00;0.73;;;;;;;4.93;100.00;100620.72;6209054;23;20024;-84
2024/01/11 05:34:59;;;;;;;2.47;0.95;;;;;;;4.95;100.00;100633.63;6210437;23;20021;-84
2024/01/11 05:37:29;;;;;;;1.77;1.13;;;;;;;4.95;100.00;100631.06;6209693;23;20039;-83
2024/01/11 05:40:13;;;;;;;2.70;0.60;;;;;;;4.99;100.00;100636.41;6209200;23;20103;-85
2024/01/11 05:42:43;;;;;;;1.08;0.80;;;;;;;4.99;100.00;100640.66;6211954;23;20021;-84
2024/01/11 05:45:22;;;;;;;;;;;;;;;;;;;;;
2024/01/11 05:47:54;;;;;;;1.63;0.73;;;;;;;4.89;100.00;100649.56;6209476;23;20017;-86
2024/01/11 05:50:28;;;;;;;1.20;0.82;;;;;;;4.89;100.00;100664.06;6204127;23;20025;-86
2024/01/11 05:53:03;;;;;;;2.63;0.82;;;;;;;4.87;100.00;100650.28;6208499;23;20024;-86
2024/01/11 05:55:32;;;;;;;1.90;0.88;;;;;;;4.83;100.00;100652.72;6208104;23;20021;-84
2024/01/11 05:58:01;;;;;;;2.15;1.10;;;;;;;4.88;100.00;100658.06;6209238;23;20017;-84
2024/01/11 06:00:30;;;;;;;3.05;0.90;;;;;;;4.93;100.00;100661.75;6211878;23;20373;-85
2024/01/11 06:03:04;;;;;;;0.57;0.50;;;;;;;4.95;100.00;100674.66;6207036;23;20082;-84
2024/01/11 06:05:33;;;;;;;2.13;0.82;;;;;;;4.93;100.00;100682.25;6207779;23;20024;-85
2024/01/11 06:08:02;;;;;;;1.45;0.80;;;;;;;4.98;100.00;100685.06;6208649;23;20013;-85
2024/01/11 06:10:32;;;;;;;3.13;1.20;;;;;;;4.98;100.00;100685.06;6207359;23;20099;-85
2024/01/11 06:13:04;;;;;;;2.13;0.75;;;;;;;4.98;100.00;100690.19;6207045;23;20475;-85
2024/01/11 06:15:33;;;;;;;3.30;0.82;;;;;;;5.02;100.00;100686.97;6206290;23;20036;-85
2024/01/11 06:18:06;;;;;;;1.75;0.77;;;;;;;5.06;100.00;100706.81;6206712;23;20013;-85
2024/01/11 06:20:49;;;;;;;3.03;1.10;;;;;;;5.06;100.00;100706.81;6205547;23;20043;-85
2024/01/11 06:23:19;;;;;;;2.35;0.75;;;;;;;5.03;100.00;100704.97;6207986;23;20423;-85
2024/01/11 06:25:48;;;;;;;3.97;1.50;;;;;;;5.04;100.00;100721.28;6207897;23;20445;-86
2024/01/11 06:28:28;;;;;;;;;;;;;;;;;;;;;
2024/01/11 06:30:59;;;;;;;2.97;1.00;;;;;;;5.01;100.00;100714.28;6208204;23;20028;-86
2024/01/11 06:33:30;;;;;;;2.20;0.90;;;;;;;5.01;100.00;100710.84;6208088;23;20017;-87
2024/01/11 06:36:09;;;;;;;;;;;;;;;;;;;;;
2024/01/11 06:38:39;;;;;;;1.63;0.70;;;;;;;5.06;100.00;100729.03;6215122;23;20020;-84
2024/01/11 06:41:09;;;;;;;1.30;0.88;;;;;;;5.10;100.00;100729.25;6212992;23;20021;-84
2024/01/11 06:43:41;;;;;;;1.45;0.77;;;;;;;5.09;100.00;100724.06;6212864;23;20020;-85
2024/01/11 06:46:12;;;;;;;2.15;0.38;;;;;;;5.15;100.00;100729.50;6218731;23;20047;-89
2024/01/11 06:48:44;;;;;;;2.72;0.80;;;;;;;5.13;100.00;100721.75;6221501;23;20017;-86
2024/01/11 06:51:16;;;;;;;0.95;0.80;;;;;;;5.08;100.00;100722.28;6211314;23;20060;-86
2024/01/11 06:53:50;;;;;;;;;;;;;;;5.07;100.00;100731.69;6225742;23;20027;-86
2024/01/11 06:56:20;;;;;;;1.85;1.05;;;;;;;5.04;100.00;100734.97;6220455;23;19922;-86
2024/01/11 06:58:49;;;;;;;2.47;0.95;;;;;;;5.02;100.00;100735.69;6215147;23;20023;-85
2024/01/11 07:01:19;;;;;;;1.60;0.70;;;;;;;5.02;100.00;100738.25;6213128;23;20055;-86
2024/01/11 07:03:59;;;;;;;2.65;1.10;;;;;;;4.99;100.00;100738.09;6214118;23;20487;-86
2024/01/11 07:06:28;;;;;;;1.10;0.77;;;;;;;4.98;100.00;100732.09;6212256;23;20070;-85
2024/01/11 07:08:58;;;;;;;3.70;1.50;;;;;;;4.97;100.00;100739.69;6214056;23;20040;-86
2024/01/11 07:11:44;;;;;;;2.00;0.77;;;;;;;4.96;100.00;100749.06;6214670;23;20074;-85
2024/01/11 07:14:13;;;;;;;0.95;0.70;;;;;;;4.99;100.00;100738.09;6208860;23;20039;-85
2024/01/11 07:17:00;;;;;;;1.55;0.95;;;;;;;4.97;100.00;100750.84;6214075;23;20390;-86
2024/01/11 07:19:33;;;;;;;3.13;1.45;;;;;;;4.93;100.00;100732.66;6214324;23;20017;-86
2024/01/11 07:22:10;;;;;;;2.35;1.02;;;;;;;4.95;100.00;100738.75;6213235;23;20024;-86
2024/01/11 07:24:40;;;;;;;1.65;0.95;;;;;;;4.95;100.00;100754.13;6214038;23;20024;-86
2024/01/11 07:27:09;;;;;;;0.90;0.73;;;;;;;4.98;100.00;100754.28;6213379;23;20029;-86
2024/01/11 07:29:38;;;;;;;1.77;1.00;;;;;;;4.99;100.00;100762.06;6213747;23;20098;-85
2024/01/11 07:32:15;;;;;;;2.55;0.80;;;;;;;5.02;100.00;100759.66;6213154;23;20465;-86
2024/01/11 07:34:46;;;;;;;1.45;1.00;;;;;;;5.09;100.00;100768.53;6214408;23;20021;-84
2024/01/11 07:37:15;;;;;;;3.83;1.40;;;;;;;5.10;100.00;100757.47;6212947;23;20092;-84
2024/01/11 07:39:47;;;;;;;2.33;0.93;;;;;;;5.11;100.00;100759.25;6213683;23;20028;-85
2024/01/11 07:42:19;;;;;;;1.27;0.70;;;;;;;5.17;100.00;100769.81;6213892;23;20016;-85
2024/01/11 07:44:48;;;;;;;1.35;0.73;;;;;;;5.17;100.00;100769.81;6211890;23;20063;-86
2024/01/11 07:47:18;;;;;;;1.52;0.95;;;;;;;5.11;100.00;100764.38;6212779;23;20024;-85
2024/01/11 07:49:57;;;;;;;2.05;0.85;;;;;;;5.09;100.00;100760.84;6215435;23;20016;-85
2024/01/11 07:52:27;;;;;;;1.08;0.70;;;;;;;5.06;100.00;100760.69;6212539;23;20017;-85
2024/01/11 07:54:57;;;;;;;2.28;0.90;;;;;;;5.08;100.00;100764.19;6215844;23;20048;-85
2024/01/11 07:57:30;;;;;;;3.13;1.00;;;;;;;5.11;100.00;100768.59;6212953;23;20449;-85
2024/01/11 08:00:01;;;;;;;;;;;;;;;5.10;100.00;100762.59;6214140;23;20480;-86
2024/01/11 08:02:30;;;;;;;1.38;0.90;;;;;;;5.15;100.00;100780.78;6212876;23;19947;-85
2024/01/11 08:05:07;;;;;;;1.58;0.90;;;;;;;5.10;100.00;100767.72;6213196;23;20024;-85
2024/01/11 15:50:43;;;;;;;0.35;0.20;;;;;;;4.83;100.00;100874.84;6211576;23;20024;-87
2024/01/11 15:53:14;;;;;;;0.40;0.35;;;;;;;4.80;100.00;100867.00;6216859;23;20018;-86
2024/01/11 15:55:56;;;;;;;0.95;0.40;;;;;;;4.77;100.00;100865.16;6214698;23;20020;-88
2024/01/11 15:58:25;;;;;;;0.95;0.40;;;;;;;4.70;100.00;100862.19;6212563;23;20080;-86
2024/01/11 16:00:54;;;;;;;4.30;0.90;;;;;;;4.70;100.00;100867.31;6211673;23;20031;-88
2024/01/11 16:03:36;;;;;;;0.50;0.50;;;;;;;4.66;100.00;100863.69;6214309;23;20071;-87
2024/01/11 16:06:06;;;;;;;2.47;0.57;;;;;;;4.74;100.00;100866.66;6211548;23;20025;-89
2024/01/11 20:24:26;;;;;;;2.25;0.63;;;;;;;7.05;100.00;100768.47;6222322;22;20285;-85
2024/01/11 20:33:04;;;;;;;2.03;0.40;;;;;;;7.00;100.00;100762.25;6194367;23;20017;-86
2024/01/11 20:35:45;;;;;;;1.13;0.20;;;;;;;7.00;100.00;100746.81;6125369;23;20022;-87
2024/01/11 20:56:28;;;;;;;3.35;0.85;;;;;;;7.50;100.00;100722.34;6185146;23;20024;-88
2024/01/11 20:58:57;;;;;;;2.75;1.52;;;;;;;7.62;100.00;100730.56;6184135;23;20020;-87
2024/01/11 21:01:27;;;;;;;4.25;2.35;;;;;;;7.70;100.00;100715.44;6183876;23;20025;-86
2024/01/11 21:04:02;;;;;;;5.88;2.78;;;;;;;7.73;100.00;100721.56;6182740;23;20049;-87
2024/01/11 21:58:30;;;;;;;2.70;0.70;;;;;;;8.03;100.00;100677.22;6216532;22;20444;-85
2024/01/11 22:00:59;;;;;;;2.83;0.80;;;;;;;8.05;100.00;100682.44;6211962;23;20016;-85
